Time;durP1;ratioP1;P1;durP2;ratioP2;P2;SDS_P1;SDS_P2;PMS_P1;PMS_P2;Temp;Humidity;BMP_temperature;BMP_pressure;BME280_temperature;BME280_humidity;BME280_pressure;Samples;Min_cycle;Max_cycle;Signal;HPM_P1;HPM_P2
2022/06/14 00:01:39;;;;;;;10.20;8.40;;;;;;;15.75;80.36;93422.72;5028266;28;20017;-38
2022/06/14 00:04:05;;;;;;;15.55;9.63;;;;;;;15.70;80.85;93423.00;5028820;28;20029;-38
2022/06/14 00:06:33;;;;;;;9.98;8.98;;;;;;;15.69;81.61;93429.88;5029001;28;20513;-38
2022/06/14 00:08:59;;;;;;;10.15;7.97;;;;;;;15.61;80.68;93435.59;5028963;28;20017;-38
2022/06/14 00:11:30;;;;;;;12.75;8.60;;;;;;;15.64;80.80;93436.44;5045183;28;20158;-38
2022/06/14 00:13:57;;;;;;;11.02;7.88;;;;;;;15.52;80.88;93430.72;5048767;28;20093;-38
2022/06/14 00:16:24;;;;;;;18.45;9.15;;;;;;;15.63;80.74;93423.84;5048669;28;20021;-39
2022/06/14 00:18:49;;;;;;;18.95;9.57;;;;;;;15.66;79.84;93425.47;5048993;28;20025;-39
2022/06/14 00:21:15;;;;;;;10.55;8.70;;;;;;;15.69;80.00;93424.31;5048903;28;20027;-39
2022/06/14 00:23:41;;;;;;;24.10;10.13;;;;;;;15.59;80.74;93429.84;5048907;28;20033;-39
2022/06/14 00:26:08;;;;;;;13.90;10.48;;;;;;;15.55;81.38;93426.75;5048613;28;20467;-38
2022/06/14 00:28:34;;;;;;;21.10;11.23;;;;;;;15.54;81.46;93424.56;5048785;28;20103;-38
2022/06/14 00:31:04;;;;;;;20.95;9.73;;;;;;;15.49;81.37;93426.31;5048738;28;20085;-39
2022/06/14 00:33:29;;;;;;;19.90;9.63;;;;;;;15.45;80.94;93431.56;5048690;28;20097;-39
2022/06/14 00:36:07;;;;;;;16.35;9.85;;;;;;;15.47;80.90;93433.75;5048460;28;20482;-39
2022/06/14 00:38:34;;;;;;;14.32;8.63;;;;;;;15.38;80.78;93431.66;5048655;28;20032;-38
2022/06/14 00:41:00;;;;;;;16.27;9.35;;;;;;;15.42;80.71;93431.97;5048643;28;20078;-39
2022/06/14 00:43:26;;;;;;;22.65;8.63;;;;;;;15.36;80.11;93428.72;5048354;28;20507;-39
2022/06/14 00:45:52;;;;;;;14.63;9.82;;;;;;;15.28;79.95;93428.84;5048372;28;20025;-39
2022/06/14 00:48:22;;;;;;;21.58;9.23;;;;;;;15.28;80.91;93434.41;5048294;28;20444;-39
2022/06/14 00:50:56;;;;;;;25.33;10.75;;;;;;;15.22;81.65;93431.19;5047220;28;20029;-38
2022/06/14 00:53:46;;;;;;;43.00;12.07;;;;;;;15.27;81.61;93438.50;5047019;28;20516;-38
2022/06/14 00:56:20;;;;;;;39.47;11.02;;;;;;;15.27;82.17;93443.34;5047263;28;20036;-39
2022/06/14 00:58:51;;;;;;;28.73;10.05;;;;;;;15.28;82.47;93439.25;5028361;28;20049;-39
2022/06/14 01:01:20;;;;;;;16.77;10.23;;;;;;;15.34;82.01;93443.22;5027377;28;20014;-39
2022/06/14 01:03:50;;;;;;;29.40;11.13;;;;;;;15.32;81.70;93439.53;5028148;28;20032;-39
2022/06/14 01:06:24;;;;;;;15.95;10.00;;;;;;;15.27;81.95;93432.94;5032934;28;20565;-38
2022/06/14 01:08:53;;;;;;;20.20;9.65;;;;;;;15.31;81.98;93432.53;5047888;28;20025;-38
2022/06/14 01:11:52;;;;;;;11.00;8.93;;;;;;;15.29;81.85;93432.38;5046606;28;20017;-38
2022/06/14 01:14:20;;;;;;;13.20;9.13;;;;;;;15.29;81.20;93440.72;5031843;28;20033;-38
2022/06/14 01:16:46;;;;;;;14.00;8.70;;;;;;;15.22;81.33;93438.78;5027983;28;20033;-38
2022/06/14 01:19:29;;;;;;;17.73;9.32;;;;;;;15.13;81.47;93431.88;5027563;28;20017;-38
2022/06/14 01:22:06;;;;;;;43.60;11.25;;;;;;;15.14;79.95;93424.97;5026385;28;20494;-38
2022/06/14 01:24:33;;;;;;;22.98;9.30;;;;;;;15.17;79.25;93429.41;5028176;28;20463;-39
2022/06/14 01:26:59;;;;;;;51.85;10.90;;;;;;;15.19;79.89;93432.31;5026888;28;20021;-39
2022/06/14 01:29:25;;;;;;;46.47;11.15;;;;;;;15.14;79.40;93433.31;5027735;28;20417;-38
2022/06/14 01:31:54;;;;;;;18.58;8.65;;;;;;;15.06;79.54;93429.94;5026805;28;20017;-38
2022/06/14 01:34:21;;;;;;;18.70;8.95;;;;;;;14.96;80.80;93431.94;5026842;28;20033;-38
2022/06/14 01:36:46;;;;;;;34.83;10.77;;;;;;;15.03;81.02;93434.59;5027749;28;20570;-38
2022/06/14 01:39:15;;;;;;;22.38;13.10;;;;;;;15.05;80.89;93437.53;5027618;28;20033;-38
2022/06/14 01:42:24;;;;;;;39.60;17.52;;;;;;;14.97;80.85;93431.34;5027627;28;20113;-38
2022/06/14 01:45:04;;;;;;;47.88;21.15;;;;;;;14.95;81.29;93442.31;5027024;28;20041;-39
2022/06/14 01:47:58;;;;;;;29.23;17.23;;;;;;;14.86;81.61;93443.00;5026571;28;20092;-38
2022/06/14 01:54:08;;;;;;;17.38;13.50;;;;;;;14.88;80.80;93440.38;5047916;28;20513;-38
2022/06/14 01:56:39;;;;;;;13.13;11.00;;;;;;;14.76;80.68;93430.34;5030729;28;20482;-38
2022/06/14 01:59:07;;;;;;;20.23;10.23;;;;;;;14.57;80.57;93433.03;5031871;28;20063;-38
2022/06/14 02:02:02;;;;;;;14.95;9.70;;;;;;;14.51;81.09;93429.78;5027423;28;20502;-38
2022/06/14 02:04:39;;;;;;;20.42;10.68;;;;;;;14.39;81.90;93421.22;5027288;28;20044;-38
2022/06/14 02:07:38;;;;;;;11.80;10.23;;;;;;;14.44;82.72;93423.00;5027329;28;20025;-38
2022/06/14 02:10:04;;;;;;;;;;;;;;;14.44;83.33;93431.34;5027614;28;20487;-38
2022/06/14 02:12:47;;;;;;;26.77;10.85;;;;;;;14.44;83.38;93423.72;5043054;28;19916;-39
2022/06/14 02:15:23;;;;;;;18.10;10.10;;;;;;;14.50;84.19;93442.19;5047078;28;20025;-39
2022/06/14 02:17:53;;;;;;;27.70;10.55;;;;;;;14.50;83.89;93437.38;5045930;28;20032;-38
2022/06/14 02:20:29;;;;;;;19.77;10.05;;;;;;;14.58;82.56;93448.38;5045772;28;20406;-38
2022/06/14 02:23:00;;;;;;;15.70;9.68;;;;;;;14.66;82.05;93444.19;5045827;28;20502;-38
2022/06/14 02:25:34;;;;;;;15.40;9.30;;;;;;;14.62;81.73;93438.31;5045791;28;20189;-38
2022/06/14 02:28:26;;;;;;;18.50;10.18;;;;;;;14.54;81.16;93440.47;5046895;28;20029;-38
2022/06/14 02:30:57;;;;;;;20.98;9.80;;;;;;;14.50;80.94;93437.38;5049988;28;20102;-38
2022/06/14 02:33:36;;;;;;;12.48;9.68;;;;;;;14.38;81.81;93445.47;5045918;28;20025;-38
2022/06/14 02:36:41;;;;;;;16.50;9.32;;;;;;;14.49;81.10;93451.84;5045334;28;20025;-38
2022/06/14 02:39:12;;;;;;;16.90;9.93;;;;;;;14.44;80.77;93445.22;4996264;28;20517;-39
2022/06/14 02:41:42;;;;;;;21.35;11.75;;;;;;;14.35;81.09;93443.13;5045908;28;20626;-38
2022/06/14 02:44:16;;;;;;;14.95;11.38;;;;;;;14.40;81.27;93445.63;5046685;28;20029;-39
2022/06/14 02:46:47;;;;;;;14.75;11.10;;;;;;;14.37;81.50;93446.03;5046706;28;20029;-38
2022/06/14 02:49:19;;;;;;;33.63;13.25;;;;;;;14.25;82.54;93451.31;5045770;28;20028;-38
2022/06/14 02:51:53;;;;;;;89.55;16.60;;;;;;;14.36;82.49;93452.91;5045660;28;20029;-38
2022/06/14 02:54:27;;;;;;;51.15;14.90;;;;;;;14.23;82.78;93459.50;5045484;28;20025;-38
2022/06/14 02:56:59;;;;;;;134.15;17.65;;;;;;;14.30;83.17;93458.72;5040237;28;20021;-38
2022/06/14 02:59:36;;;;;;;84.35;15.32;;;;;;;14.41;82.52;93457.47;5035481;28;20049;-39
2022/06/14 03:02:08;;;;;;;46.08;13.90;;;;;;;14.41;82.46;93463.78;5046457;28;20036;-38
2022/06/14 03:04:35;;;;;;;60.00;12.13;;;;;;;14.48;82.83;93455.91;5045319;28;20519;-38
2022/06/14 03:07:06;;;;;;;48.63;10.60;;;;;;;14.46;82.99;93459.28;5046407;28;20033;-38
2022/06/14 03:09:32;;;;;;;23.23;10.27;;;;;;;14.44;83.59;93465.38;5047936;28;20048;-38
2022/06/14 03:12:16;;;;;;;18.48;10.35;;;;;;;14.46;84.02;93459.28;5048896;28;20021;-38
2022/06/14 03:14:50;;;;;;;51.75;12.73;;;;;;;14.49;85.22;93465.72;5030851;28;20029;-38
2022/06/14 03:17:37;;;;;;;40.97;11.73;;;;;;;14.58;84.87;93468.56;5029760;28;20029;-38
2022/06/14 03:20:24;;;;;;;61.83;15.98;;;;;;;14.55;84.83;93466.94;5029750;28;20022;-39
2022/06/14 03:23:02;;;;;;;43.10;14.32;;;;;;;14.63;84.24;93462.03;5029695;28;20032;-38
2022/06/14 03:25:55;;;;;;;68.15;12.85;;;;;;;14.58;84.04;93465.78;5028642;28;20032;-38
2022/06/14 03:29:03;;;;;;;65.65;12.90;;;;;;;14.64;83.75;93471.09;5028660;28;20045;-39
2022/06/14 03:31:28;;;;;;;68.90;12.20;;;;;;;14.61;84.08;93481.31;5033562;28;20057;-38
2022/06/14 03:34:10;;;;;;;66.90;11.98;;;;;;;14.65;84.29;93478.13;5050352;28;20549;-38
2022/06/14 03:36:36;;;;;;;47.72;12.02;;;;;;;14.46;84.65;93450.19;5029404;28;20494;-38
2022/06/14 03:39:09;;;;;;;58.13;11.35;;;;;;;14.67;84.18;93481.78;5028575;28;20052;-38
2022/06/14 03:41:37;;;;;;;36.30;10.07;;;;;;;14.68;83.79;93485.31;5028342;28;20021;-38
2022/06/14 03:44:04;;;;;;;38.50;10.55;;;;;;;14.68;84.23;93476.97;5028579;28;20029;-38
2022/06/14 03:46:32;;;;;;;37.55;11.10;;;;;;;14.65;84.11;93480.91;5029594;28;20053;-38
2022/06/14 03:49:04;;;;;;;26.65;9.10;;;;;;;14.49;84.14;93476.84;5029751;28;20108;-38
2022/06/14 03:51:57;;;;;;;25.90;9.27;;;;;;;14.62;83.86;93477.22;5027711;28;20038;-38
2022/06/14 03:54:25;;;;;;;37.05;11.85;;;;;;;14.74;83.12;93480.97;5028949;28;20414;-39
2022/06/14 03:57:02;;;;;;;18.38;12.05;;;;;;;14.77;82.45;93479.09;5034155;28;20043;-39
2022/06/14 04:00:00;;;;;;;13.52;10.45;;;;;;;14.85;82.65;93474.91;5049046;28;20048;-38
2022/06/14 04:02:53;;;;;;;15.40;10.20;;;;;;;14.88;82.70;93482.06;5048128;28;20029;-39
2022/06/14 04:05:44;;;;;;;13.23;9.02;;;;;;;14.90;82.24;93479.44;5049004;28;20033;-38
2022/06/14 04:08:19;;;;;;;13.48;8.73;;;;;;;14.89;81.83;93466.13;5048919;28;20039;-38
2022/06/14 04:10:44;;;;;;;14.98;9.93;;;;;;;14.99;81.93;93481.56;5049170;28;20417;-39
2022/06/14 04:13:18;;;;;;;17.48;12.52;;;;;;;14.96;82.27;93481.97;5048460;28;20041;-39
2022/06/14 04:15:50;;;;;;;11.52;9.60;;;;;;;14.99;82.26;93470.44;5048854;28;20581;-38
2022/06/14 04:18:40;;;;;;;10.48;9.38;;;;;;;15.10;82.57;93494.94;5047577;28;20078;-39
2022/06/14 04:21:05;;;;;;;10.82;8.95;;;;;;;15.19;81.46;93485.91;5047602;28;20047;-39
2022/06/14 04:23:42;;;;;;;10.40;8.93;;;;;;;15.28;81.22;93494.88;5048581;28;20444;-39
2022/06/14 04:26:46;;;;;;;11.52;9.52;;;;;;;15.24;81.84;93483.44;5048785;28;20031;-39
2022/06/14 04:29:11;;;;;;;12.73;10.15;;;;;;;15.30;82.22;93481.13;5048930;28;20032;-38
2022/06/14 04:31:43;;;;;;;18.95;11.98;;;;;;;15.43;81.97;93489.06;5048479;28;20116;-38
2022/06/14 04:34:22;;;;;;;15.45;11.13;;;;;;;15.52;81.95;93494.72;5048595;28;20523;-38
2022/06/14 04:36:55;;;;;;;15.52;12.13;;;;;;;15.54;82.04;93494.13;5048876;28;20033;-38
2022/06/14 04:39:45;;;;;;;22.48;13.70;;;;;;;15.54;82.64;93503.22;5047589;28;20033;-38
2022/06/14 04:42:19;;;;;;;17.38;14.02;;;;;;;15.53;83.27;93501.75;5035585;28;20040;-38
2022/06/14 04:44:54;;;;;;;24.20;16.67;;;;;;;15.55;83.50;93504.69;5047482;28;20097;-38
2022/06/14 04:47:25;;;;;;;24.83;17.08;;;;;;;15.59;83.81;93502.19;5048654;28;20111;-38
2022/06/14 04:49:55;;;;;;;32.45;16.50;;;;;;;15.60;84.14;93508.50;5047041;28;20040;-39
2022/06/14 04:52:26;;;;;;;23.88;15.98;;;;;;;15.67;83.41;93507.66;5033295;28;20090;-39
2022/06/14 04:55:17;;;;;;;27.65;17.00;;;;;;;15.72;83.96;93512.94;5027506;28;20033;-39
2022/06/14 04:57:46;;;;;;;19.92;14.50;;;;;;;15.77;84.20;93511.94;5027315;28;20562;-38
2022/06/14 05:00:15;;;;;;;22.63;15.02;;;;;;;15.81;83.61;93511.50;5026982;28;20054;-38
2022/06/14 05:03:02;;;;;;;21.15;15.48;;;;;;;15.95;83.22;93512.56;5028219;28;20121;-39
2022/06/14 05:05:38;;;;;;;18.33;14.10;;;;;;;15.99;82.94;93518.44;5028210;28;20082;-39
2022/06/14 05:08:15;;;;;;;20.75;14.25;;;;;;;16.10;82.74;93526.25;5026159;28;20033;-39
2022/06/14 05:10:48;;;;;;;16.15;14.30;;;;;;;16.14;82.93;93520.22;5028264;28;20101;-39
2022/06/14 05:13:29;;;;;;;25.15;16.38;;;;;;;16.27;83.05;93517.78;5033627;28;20413;-39
2022/06/14 05:16:13;;;;;;;23.42;13.93;;;;;;;16.33;83.49;93514.72;5047905;28;20478;-39
2022/06/14 05:19:11;;;;;;;25.60;13.18;;;;;;;16.42;83.40;93525.09;5048204;28;20470;-39
2022/06/14 05:21:53;;;;;;;20.83;14.73;;;;;;;16.49;83.61;93521.44;5044710;28;20068;-39
2022/06/14 05:24:19;;;;;;;27.17;17.92;;;;;;;16.60;83.82;93518.13;5048118;28;20036;-39
2022/06/14 05:26:56;;;;;;;23.35;16.88;;;;;;;16.69;84.35;93520.19;5046468;28;20413;-39
2022/06/14 05:29:57;;;;;;;14.43;12.52;;;;;;;16.90;83.65;93525.13;5047894;28;20412;-39
2022/06/14 05:32:34;;;;;;;15.07;12.10;;;;;;;16.96;83.76;93528.34;4965804;28;20546;-39
2022/06/14 05:35:23;;;;;;;13.25;11.85;;;;;;;17.09;83.22;93513.94;5036957;28;20048;-39
2022/06/14 05:38:12;;;;;;;14.55;11.52;;;;;;;17.20;83.39;93521.72;5046692;28;20117;-39
2022/06/14 05:40:48;;;;;;;19.02;11.77;;;;;;;17.37;83.47;93525.06;5047518;28;20021;-39
2022/06/14 05:43:32;;;;;;;17.45;12.52;;;;;;;17.56;83.39;93523.56;5047515;28;20021;-39
2022/06/14 05:46:11;;;;;;;13.38;12.05;;;;;;;17.68;83.48;93527.94;5047731;28;20032;-39
2022/06/14 05:48:50;;;;;;;13.90;10.93;;;;;;;17.87;84.13;93536.22;5033617;28;20520;-39
2022/06/14 05:51:18;;;;;;;14.88;12.02;;;;;;;18.02;83.92;93527.47;5026578;28;20410;-39
2022/06/14 05:53:52;;;;;;;12.10;10.63;;;;;;;18.17;83.40;93526.34;5026261;28;20022;-39
2022/06/14 05:56:47;;;;;;;15.75;10.23;;;;;;;18.34;83.82;93526.13;5027281;28;20033;-39
2022/06/14 05:59:21;;;;;;;11.95;10.75;;;;;;;18.48;82.89;93523.56;5032122;28;20064;-39
2022/06/14 06:01:53;;;;;;;12.05;9.80;;;;;;;18.57;82.76;93512.31;5027386;28;20040;-39
2022/06/14 06:04:34;;;;;;;11.52;10.43;;;;;;;18.71;81.51;93529.28;5026445;28;20042;-39
2022/06/14 06:07:04;;;;;;;12.63;9.45;;;;;;;18.84;81.44;93534.34;5026211;28;20487;-39
2022/06/14 06:09:36;;;;;;;13.73;9.57;;;;;;;18.97;80.57;93544.97;5027264;28;20031;-39
2022/06/14 06:12:31;;;;;;;18.40;10.45;;;;;;;19.14;80.63;93538.34;5026383;28;20025;-40
2022/06/14 06:15:02;;;;;;;9.60;8.63;;;;;;;19.23;76.94;93537.53;5023739;28;20034;-39
2022/06/14 06:17:33;;;;;;;10.98;9.88;;;;;;;19.31;76.34;93541.56;5026385;28;20029;-39
2022/06/14 06:20:13;;;;;;;13.52;9.95;;;;;;;19.46;77.69;93535.56;5027135;28;20030;-39
2022/06/14 06:23:12;;;;;;;13.05;11.75;;;;;;;19.66;77.94;93542.38;5026160;28;20029;-39
2022/06/14 06:25:44;;;;;;;13.07;11.45;;;;;;;19.82;77.78;93522.31;5026086;28;20099;-39
2022/06/14 06:28:39;;;;;;;13.00;10.60;;;;;;;20.14;76.90;93543.91;5026153;28;20105;-40
2022/06/14 06:31:11;;;;;;;12.20;10.07;;;;;;;20.29;75.03;93540.63;5025781;28;20041;-39
2022/06/14 06:33:40;;;;;;;11.00;9.02;;;;;;;20.39;74.62;93544.03;5026142;28;20040;-39
2022/06/14 06:36:25;;;;;;;13.13;9.18;;;;;;;20.52;75.42;93548.28;5027112;28;20025;-40
2022/06/14 06:39:19;;;;;;;9.10;8.15;;;;;;;20.54;73.75;93548.38;5027287;28;20094;-39
2022/06/14 06:41:53;;;;;;;9.15;8.27;;;;;;;20.60;73.64;93543.88;5019777;28;20506;-39
2022/06/14 06:44:38;;;;;;;12.82;8.73;;;;;;;20.70;74.24;93541.66;5037648;28;20060;-39
2022/06/14 06:47:11;;;;;;;9.18;8.25;;;;;;;20.72;72.69;93547.41;5050209;28;20516;-39
2022/06/14 06:50:17;;;;;;;7.72;6.75;;;;;;;20.59;72.73;93550.84;5049409;28;20025;-38
2022/06/14 06:53:08;;;;;;;10.52;7.78;;;;;;;20.47;73.47;93552.19;5047662;28;20075;-38
2022/06/14 06:55:57;;;;;;;8.10;7.28;;;;;;;20.50;74.37;93556.56;5050076;28;20025;-39
2022/06/14 06:58:27;;;;;;;7.78;6.97;;;;;;;20.57;74.62;93555.59;5032388;28;20114;-39
2022/06/14 07:00:56;;;;;;;8.52;7.43;;;;;;;20.58;73.34;93554.97;5028897;28;20073;-39
2022/06/14 07:03:30;;;;;;;13.07;8.27;;;;;;;20.65;72.59;93565.22;5030269;28;20033;-39
2022/06/14 07:05:59;;;;;;;10.25;7.00;;;;;;;20.68;73.57;93555.56;5030005;28;20036;-39
2022/06/14 07:09:05;;;;;;;12.30;8.10;;;;;;;20.70;72.45;93563.38;5028826;28;20022;-39
2022/06/14 07:11:38;;;;;;;8.90;7.35;;;;;;;20.73;72.70;93556.53;5028975;28;20038;-39
2022/06/14 07:14:28;;;;;;;9.70;7.95;;;;;;;20.83;72.54;93557.13;5042435;28;20049;-39
2022/06/14 07:17:11;;;;;;;10.88;7.90;;;;;;;20.92;72.77;93562.56;5033472;28;20509;-39
2022/06/14 07:19:43;;;;;;;10.98;8.68;;;;;;;21.06;72.14;93549.38;5048490;28;20020;-40
2022/06/14 07:22:22;;;;;;;9.75;7.82;;;;;;;21.30;70.73;93568.94;5048837;28;20037;-39
2022/06/14 07:24:53;;;;;;;20.70;8.05;;;;;;;21.41;71.16;93566.09;5048797;28;20116;-39
2022/06/14 07:27:23;;;;;;;7.82;7.13;;;;;;;21.50;69.15;93562.38;5049646;28;20029;-39
2022/06/14 07:30:06;;;;;;;13.45;7.07;;;;;;;21.69;68.47;93569.72;5048664;28;20021;-40
2022/06/14 07:32:35;;;;;;;11.27;6.38;;;;;;;21.74;67.34;93565.81;5048312;28;20122;-39
2022/06/14 07:47:07;;;;;;;6.88;5.72;;;;;;;23.16;60.94;93574.66;5149045;27;20624;-39
2022/06/14 07:49:45;;;;;;;8.57;5.20;;;;;;;23.14;59.56;93571.75;5149339;27;20454;-40
2022/06/14 07:52:19;;;;;;;9.48;6.13;;;;;;;23.30;59.35;93584.53;5149053;27;20015;-39
2022/06/14 07:54:48;;;;;;;8.98;6.32;;;;;;;23.56;60.11;93584.38;5148070;27;20015;-39
2022/06/14 07:57:25;;;;;;;6.60;6.00;;;;;;;23.77;58.42;93581.16;5148046;27;20034;-39
2022/06/14 08:03:11;;;;;;;7.60;5.27;;;;;;;24.36;56.04;93584.63;5147717;27;20034;-39
2022/06/14 08:05:39;;;;;;;7.20;5.25;;;;;;;24.72;56.56;93581.31;5147332;27;20390;-39
2022/06/14 08:08:07;;;;;;;5.75;4.85;;;;;;;25.05;54.72;93574.28;5147496;27;20037;-40
2022/06/14 08:10:37;;;;;;;8.07;4.90;;;;;;;25.53;53.13;93581.97;5129904;27;20027;-40
2022/06/14 08:13:09;;;;;;;5.38;4.88;;;;;;;25.98;51.24;93573.88;5132341;27;20103;-40
2022/06/14 08:15:40;;;;;;;6.95;5.20;;;;;;;26.16;51.22;93574.59;5147463;27;20022;-40
2022/06/14 08:18:09;;;;;;;7.25;5.53;;;;;;;26.08;51.04;93573.53;5148511;27;20026;-40
2022/06/14 08:20:41;;;;;;;5.25;4.80;;;;;;;25.94;51.88;93573.72;5148399;27;20065;-40
2022/06/14 08:23:29;;;;;;;7.10;5.20;;;;;;;25.74;52.94;93575.75;5148408;27;20027;-40
2022/06/14 08:26:07;;;;;;;5.97;5.25;;;;;;;25.51;53.35;93579.06;5147225;27;20021;-39
2022/06/14 08:29:04;;;;;;;10.27;5.00;;;;;;;25.77;53.38;93571.63;5147427;27;20419;-40
2022/06/14 08:31:37;;;;;;;6.28;5.03;;;;;;;26.06;52.68;93571.34;5119824;27;20038;-40
2022/06/14 08:34:11;;;;;;;5.05;4.65;;;;;;;26.16;52.50;93576.72;5148328;27;20027;-39
2022/06/14 08:37:00;;;;;;;5.80;5.30;;;;;;;26.16;51.29;93577.41;5147027;27;20023;-40
2022/06/14 08:39:36;;;;;;;7.22;4.93;;;;;;;25.93;51.77;93572.25;5146953;27;20023;-40
2022/06/14 08:42:39;;;;;;;5.63;5.05;;;;;;;25.74;52.63;93570.09;5126187;28;20039;-39
2022/06/14 08:45:38;;;;;;;4.70;4.25;;;;;;;25.61;51.29;93578.72;5107827;27;20065;-40
2022/06/14 08:48:40;;;;;;;5.05;2.78;;;;;;;25.33;45.72;93579.00;5113266;28;20031;-40
2022/06/14 08:51:10;;;;;;;2.45;2.15;;;;;;;25.72;47.03;93574.94;5110600;28;20032;-39
2022/06/14 08:53:45;;;;;;;2.33;2.10;;;;;;;26.65;42.37;93582.78;5113390;28;20031;-39
2022/06/14 08:56:40;;;;;;;4.65;2.30;;;;;;;26.93;42.06;93581.00;5113403;28;20069;-40
2022/06/14 08:59:11;;;;;;;2.58;2.38;;;;;;;27.09;44.04;93577.28;5113685;28;20088;-39
2022/06/14 09:01:58;;;;;;;2.97;2.60;;;;;;;26.92;45.53;93578.84;5113684;28;20050;-39
2022/06/14 09:04:45;;;;;;;4.10;3.70;;;;;;;26.72;44.38;93586.56;5113149;28;20031;-40
2022/06/14 09:07:22;;;;;;;5.28;2.88;;;;;;;26.20;43.79;93585.34;5113587;28;20020;-39
2022/06/14 09:09:50;;;;;;;2.83;2.63;;;;;;;25.98;46.61;93578.78;5113199;28;20420;-40
2022/06/14 09:12:42;;;;;;;3.37;2.70;;;;;;;25.99;45.80;93571.78;5113387;28;20175;-39
2022/06/14 09:15:16;;;;;;;5.35;2.53;;;;;;;25.85;46.07;93569.13;5113259;28;20441;-40
2022/06/14 09:18:02;;;;;;;2.55;1.92;;;;;;;25.99;46.47;93571.78;5112887;28;20134;-39
2022/06/14 09:21:05;;;;;;;4.38;3.70;;;;;;;26.11;46.18;93577.91;5111173;28;20502;-39
2022/06/14 09:23:58;;;;;;;2.38;2.17;;;;;;;25.98;45.39;93573.88;5110426;28;20675;-39
2022/06/14 09:26:35;;;;;;;2.67;2.30;;;;;;;25.96;46.36;93573.78;5110350;28;20419;-39
2022/06/14 09:29:25;;;;;;;6.85;2.22;;;;;;;25.93;45.39;93574.34;5110816;28;20318;-39
2022/06/14 09:31:56;;;;;;;4.68;2.80;;;;;;;25.97;46.47;93574.50;5110884;28;20031;-39
2022/06/14 09:34:50;;;;;;;4.05;2.30;;;;;;;26.10;47.11;93579.28;5110273;28;20027;-39
2022/06/14 09:37:41;;;;;;;5.13;3.25;;;;;;;26.32;47.82;93577.31;5123636;27;20096;-39
2022/06/14 09:40:43;;;;;;;7.35;3.00;;;;;;;26.29;45.87;93572.97;5091029;27;20050;-39
2022/06/14 09:43:26;;;;;;;3.28;2.95;;;;;;;26.47;45.04;93582.13;5126245;27;20084;-39
2022/06/14 09:46:21;;;;;;;4.47;2.83;;;;;;;27.04;44.21;93570.75;5109812;28;20043;-39
2022/06/14 09:49:31;;;;;;;3.00;2.08;;;;;;;28.20;41.57;93576.00;5109506;28;20075;-39
2022/06/14 09:52:07;;;;;;;3.35;1.67;;;;;;;28.69;37.74;93572.50;5078374;28;20649;-39
2022/06/14 09:54:41;;;;;;;3.50;1.95;;;;;;;29.59;37.42;93571.41;5108805;28;20016;-39
2022/06/14 09:57:31;;;;;;;1.77;1.63;;;;;;;30.48;34.79;93565.72;5110260;28;20100;-40
2022/06/14 10:00:05;;;;;;;2.42;1.50;;;;;;;31.17;34.94;93571.44;5109518;28;20077;-39
2022/06/14 10:02:49;;;;;;;7.95;2.97;;;;;;;31.46;34.09;93560.56;5109696;28;20621;-39
2022/06/14 10:05:36;;;;;;;3.17;2.85;;;;;;;32.72;33.77;93562.59;5109732;28;20496;-39
2022/06/14 10:08:17;;;;;;;2.10;1.80;;;;;;;33.10;29.78;93562.38;5110125;28;20034;-40
2022/06/14 10:10:47;;;;;;;2.22;2.00;;;;;;;33.62;30.29;93553.63;5109953;28;20083;-40
2022/06/14 10:13:19;;;;;;;1.73;1.50;;;;;;;33.19;30.81;93561.03;5114937;27;20504;-39
2022/06/14 10:15:50;;;;;;;7.15;2.17;;;;;;;33.03;29.24;93557.97;5130052;27;20026;-40
2022/06/14 10:18:50;;;;;;;3.42;1.70;;;;;;;33.13;31.83;93540.22;5129742;27;20131;-40
2022/06/14 10:21:28;;;;;;;2.92;1.40;;;;;;;32.80;29.77;93536.22;5129058;27;20410;-38
2022/06/14 10:24:05;;;;;;;1.95;1.48;;;;;;;32.71;31.86;93537.53;5129293;27;20031;-39
2022/06/14 10:29:48;;;;;;;7.32;5.07;;;;;;;32.87;31.32;93535.63;5130242;27;20103;-39
2022/06/14 10:32:35;;;;;;;2.30;2.03;;;;;;;31.69;31.64;93525.28;5126468;27;20033;-39
2022/06/14 10:35:19;;;;;;;2.35;1.65;;;;;;;30.53;33.26;93519.53;5109282;28;20488;-38
2022/06/14 10:38:13;;;;;;;3.22;2.30;;;;;;;29.34;36.79;93510.34;5109090;28;20027;-39
2022/06/14 10:40:51;;;;;;;3.00;2.00;;;;;;;27.89;40.26;93496.97;5107348;28;20612;-40
2022/06/14 10:43:20;;;;;;;4.70;2.20;;;;;;;27.29;39.78;93516.31;5108990;28;20393;-39
2022/06/14 10:45:51;;;;;;;4.75;3.20;;;;;;;26.87;42.59;93535.47;5108774;28;20048;-38
2022/06/14 10:48:26;;;;;;;3.60;3.28;;;;;;;26.57;45.72;93557.03;5107974;28;20808;-39
2022/06/14 10:51:10;;;;;;;5.07;3.13;;;;;;;26.10;45.39;93565.13;5108916;28;20549;-39
2022/06/14 10:54:17;;;;;;;3.97;3.08;;;;;;;25.71;46.05;93557.22;5108719;28;20496;-39
2022/06/14 10:57:07;;;;;;;4.30;2.33;;;;;;;25.33;46.44;93553.56;5094546;28;20047;-39
2022/06/14 11:00:03;;;;;;;5.10;3.30;;;;;;;24.61;46.40;93542.00;5108925;28;20093;-38
2022/06/14 11:02:50;;;;;;;34.55;25.35;;;;;;;24.30;46.53;93551.22;5107475;28;20032;-39
2022/06/14 11:05:21;;;;;;;2.88;2.67;;;;;;;24.11;46.41;93557.41;5107583;28;20031;-38
2022/06/14 11:07:50;;;;;;;26.15;16.00;;;;;;;23.96;45.85;93561.66;5108419;28;20827;-39
2022/06/14 11:10:34;;;;;;;39.28;34.15;;;;;;;23.78;46.49;93557.97;5108243;28;20031;-39
2022/06/14 11:13:13;;;;;;;13.38;10.05;;;;;;;23.72;49.11;93560.50;5112588;27;20515;-39
2022/06/14 11:16:23;;;;;;;17.10;12.35;;;;;;;23.73;50.57;93561.25;5127901;27;20131;-39
2022/06/14 11:22:04;;;;;;;4.43;3.50;;;;;;;23.58;50.68;93533.75;5130631;27;20414;-39
2022/06/14 11:24:45;;;;;;;2.90;1.90;;;;;;;23.71;49.55;93556.25;5131617;27;20027;-39
2022/06/14 11:27:23;;;;;;;2.80;2.50;;;;;;;23.65;51.81;93549.59;5131377;27;20015;-40
2022/06/14 11:30:00;;;;;;;3.03;2.60;;;;;;;23.62;53.04;93548.75;5117380;27;20035;-39
2022/06/14 11:32:31;;;;;;;3.00;2.70;;;;;;;23.57;52.97;93552.75;5111009;28;20024;-39
2022/06/14 11:35:00;;;;;;;3.17;2.80;;;;;;;23.53;54.38;93541.28;5109391;28;20137;-40
2022/06/14 11:37:53;;;;;;;3.15;2.85;;;;;;;23.54;55.85;93550.47;5109388;28;20035;-39
2022/06/14 11:40:27;;;;;;;4.00;2.97;;;;;;;23.61;55.12;93546.56;5110889;28;20119;-39
2022/06/14 11:43:15;;;;;;;3.60;3.30;;;;;;;23.62;54.72;93531.84;5110792;28;20045;-39
2022/06/14 11:46:24;;;;;;;7.40;3.35;;;;;;;23.69;55.59;93538.50;5110459;28;20086;-39
2022/06/14 11:49:10;;;;;;;2.45;2.25;;;;;;;23.71;54.12;93533.69;5097946;28;20122;-39
2022/06/14 11:52:04;;;;;;;3.47;2.65;;;;;;;23.92;55.67;93544.53;5109604;28;20433;-39
2022/06/14 11:54:54;;;;;;;17.42;3.75;;;;;;;24.10;52.95;93536.91;5110392;28;20024;-39
2022/06/14 11:57:41;;;;;;;4.90;3.65;;;;;;;24.18;53.10;93544.28;5110500;28;20036;-39
2022/06/14 12:00:34;;;;;;;3.90;2.25;;;;;;;24.33;54.98;93547.13;5110378;28;20031;-40
2022/06/14 12:03:05;;;;;;;7.72;2.75;;;;;;;24.43;53.60;93547.56;5110790;28;20028;-39
2022/06/14 12:05:54;;;;;;;5.50;2.80;;;;;;;24.61;52.05;93554.00;5110685;28;20026;-40
2022/06/14 12:08:55;;;;;;;2.80;2.60;;;;;;;24.80;52.63;93544.25;5109323;28;20473;-40
2022/06/14 12:11:24;;;;;;;2.47;2.25;;;;;;;24.99;51.67;93540.84;5109173;28;20591;-39
2022/06/14 12:14:01;;;;;;;1.90;1.67;;;;;;;25.16;50.67;93536.59;5121222;28;20404;-39
2022/06/14 12:16:37;;;;;;;1.92;1.73;;;;;;;25.18;47.83;93545.88;5130987;27;20033;-39
2022/06/14 12:19:15;;;;;;;2.70;2.20;;;;;;;25.36;49.02;93546.63;5129905;28;20099;-39
2022/06/14 12:21:47;;;;;;;;;;;;;;;25.40;47.90;93546.78;5131718;27;20023;-39
2022/06/14 12:24:17;;;;;;;5.68;3.35;;;;;;;25.43;46.59;93542.69;5134638;27;19964;-40
2022/06/14 12:26:59;;;;;;;3.35;1.48;;;;;;;25.44;45.30;93535.69;5113951;27;20726;-39
2022/06/14 12:29:28;;;;;;;2.00;1.13;;;;;;;25.44;42.83;93538.50;5112776;28;20028;-39
2022/06/14 12:31:59;;;;;;;8.65;2.10;;;;;;;25.58;43.91;93541.88;5112624;28;20023;-40
2022/06/14 12:34:25;;;;;;;5.80;1.98;;;;;;;25.76;44.25;93541.16;5114057;28;20481;-40
2022/06/14 12:37:32;;;;;;;1.30;1.20;;;;;;;25.84;43.55;93535.81;5114150;28;20028;-39
2022/06/14 12:40:03;;;;;;;12.60;1.40;;;;;;;25.90;42.65;93527.56;5113675;28;20028;-40
2022/06/14 12:43:03;;;;;;;8.07;1.42;;;;;;;26.03;42.19;93537.97;5112536;28;20062;-39
2022/06/14 12:45:46;;;;;;;1.92;1.30;;;;;;;26.02;41.13;93540.06;5089966;28;20061;-40